Terminal Aerodrome Forecast
Issued by NWS Charleston, WV

Current Version | Previous Version | Graphics & Text | Print | Product List | Glossary On
Versions: 1 2 3 4 5 6 7 8 9 10 11 12 13 14 15 16 17 18 19 20 21 22
000
FTUS41 KRLX 270500
TAFHTS
TAF
KHTS 270524Z 2706/2806 VRB03KT P6SM BKN150
     FM271400 19005KT P6SM BKN100
     FM280300 20004KT P6SM OVC030
     FM280500 VRB03KT 6SM -RA BR OVC025=

USA.gov is the U.S. government's official web portal to all federal, state and local government web resources and services.